sensor_id;sensor_type;location;lat;lon;timestamp;pressure;altitude;pressure_sealevel;temperature;humidity
54936;BME280;40838;50.676;7.838;2024-02-23T00:00:54;95803.25;;;8.29;100.00
54936;BME280;40838;50.676;7.838;2024-02-23T00:03:21;95805.44;;;8.49;100.00
54936;BME280;40838;50.676;7.838;2024-02-23T00:05:50;95824.88;;;8.53;100.00
54936;BME280;40838;50.676;7.838;2024-02-23T00:08:17;95829.41;;;8.25;100.00
54936;BME280;40838;50.676;7.838;2024-02-23T00:10:46;95828.41;;;8.49;100.00
54936;BME280;40838;50.676;7.838;2024-02-23T00:13:13;95830.69;;;8.14;100.00
54936;BME280;40838;50.676;7.838;2024-02-23T00:15:39;95841.91;;;8.70;100.00
54936;BME280;40838;50.676;7.838;2024-02-23T00:18:06;95843.09;;;8.13;100.00
54936;BME280;40838;50.676;7.838;2024-02-23T00:20:33;95845.75;;;8.86;100.00
54936;BME280;40838;50.676;7.838;2024-02-23T00:23:02;95867.28;;;8.15;100.00
54936;BME280;40838;50.676;7.838;2024-02-23T00:25:29;95860.44;;;8.42;100.00
54936;BME280;40838;50.676;7.838;2024-02-23T00:27:56;95871.28;;;7.85;100.00
54936;BME280;40838;50.676;7.838;2024-02-23T00:30:23;95874.47;;;8.23;100.00
54936;BME280;40838;50.676;7.838;2024-02-23T00:32:50;95882.19;;;7.51;100.00
54936;BME280;40838;50.676;7.838;2024-02-23T00:35:17;95885.25;;;7.99;100.00
54936;BME280;40838;50.676;7.838;2024-02-23T00:37:44;95903.50;;;8.10;100.00
54936;BME280;40838;50.676;7.838;2024-02-23T00:40:13;95900.28;;;7.99;100.00
54936;BME280;40838;50.676;7.838;2024-02-23T00:42:40;95915.34;;;7.19;100.00
54936;BME280;40838;50.676;7.838;2024-02-23T00:45:07;95916.31;;;6.72;100.00
54936;BME280;40838;50.676;7.838;2024-02-23T00:47:35;95945.16;;;6.96;100.00
54936;BME280;40838;50.676;7.838;2024-02-23T00:50:03;95940.44;;;6.55;100.00
54936;BME280;40838;50.676;7.838;2024-02-23T00:52:30;95935.75;;;6.71;100.00
54936;BME280;40838;50.676;7.838;2024-02-23T00:54:58;95957.16;;;6.64;100.00
54936;BME280;40838;50.676;7.838;2024-02-23T00:57:26;95956.38;;;6.82;100.00
54936;BME280;40838;50.676;7.838;2024-02-23T00:59:55;95960.81;;;6.44;100.00
54936;BME280;40838;50.676;7.838;2024-02-23T01:02:22;95968.69;;;6.87;100.00
54936;BME280;40838;50.676;7.838;2024-02-23T01:04:49;95965.97;;;7.11;100.00
54936;BME280;40838;50.676;7.838;2024-02-23T01:07:22;95971.84;;;6.65;100.00
54936;BME280;40838;50.676;7.838;2024-02-23T01:09:49;95966.59;;;6.65;100.00
54936;BME280;40838;50.676;7.838;2024-02-23T01:12:16;95977.09;;;6.46;100.00
54936;BME280;40838;50.676;7.838;2024-02-23T01:14:44;95975.50;;;6.45;100.00
54936;BME280;40838;50.676;7.838;2024-02-23T01:17:13;95985.03;;;6.41;100.00
54936;BME280;40838;50.676;7.838;2024-02-23T01:19:41;95997.56;;;6.20;100.00
54936;BME280;40838;50.676;7.838;2024-02-23T01:22:08;96009.50;;;6.60;100.00
54936;BME280;40838;50.676;7.838;2024-02-23T01:24:35;96006.50;;;7.10;100.00
54936;BME280;40838;50.676;7.838;2024-02-23T01:27:02;96020.13;;;6.50;100.00
54936;BME280;40838;50.676;7.838;2024-02-23T01:29:29;96020.75;;;6.13;100.00
54936;BME280;40838;50.676;7.838;2024-02-23T01:31:57;96022.09;;;6.39;100.00
54936;BME280;40838;50.676;7.838;2024-02-23T01:34:24;96029.41;;;4.61;100.00
54936;BME280;40838;50.676;7.838;2024-02-23T01:36:51;96041.56;;;3.90;100.00
54936;BME280;40838;50.676;7.838;2024-02-23T01:39:18;96035.84;;;3.88;100.00
54936;BME280;40838;50.676;7.838;2024-02-23T01:41:45;96038.75;;;3.97;100.00
54936;BME280;40838;50.676;7.838;2024-02-23T01:44:12;96035.06;;;3.98;100.00
54936;BME280;40838;50.676;7.838;2024-02-23T01:46:40;96036.59;;;3.79;100.00
54936;BME280;40838;50.676;7.838;2024-02-23T01:49:09;96068.53;;;3.60;100.00
54936;BME280;40838;50.676;7.838;2024-02-23T01:51:36;96056.00;;;3.67;100.00
54936;BME280;40838;50.676;7.838;2024-02-23T01:54:03;96058.09;;;3.50;100.00
54936;BME280;40838;50.676;7.838;2024-02-23T01:56:30;96058.34;;;3.79;100.00
54936;BME280;40838;50.676;7.838;2024-02-23T01:58:58;96053.88;;;3.54;100.00
54936;BME280;40838;50.676;7.838;2024-02-23T02:01:25;96058.09;;;3.65;100.00
54936;BME280;40838;50.676;7.838;2024-02-23T02:03:52;96060.44;;;3.67;100.00
54936;BME280;40838;50.676;7.838;2024-02-23T02:06:21;96062.25;;;3.46;100.00
54936;BME280;40838;50.676;7.838;2024-02-23T02:08:47;96067.50;;;3.51;100.00
54936;BME280;40838;50.676;7.838;2024-02-23T02:11:14;96072.69;;;3.41;100.00
54936;BME280;40838;50.676;7.838;2024-02-23T02:13:41;96068.28;;;3.52;100.00
54936;BME280;40838;50.676;7.838;2024-02-23T02:16:08;96066.97;;;3.39;100.00
54936;BME280;40838;50.676;7.838;2024-02-23T02:18:36;96074.28;;;3.47;100.00
54936;BME280;40838;50.676;7.838;2024-02-23T02:21:03;96071.13;;;3.35;100.00
54936;BME280;40838;50.676;7.838;2024-02-23T02:23:31;96075.59;;;3.44;100.00
54936;BME280;40838;50.676;7.838;2024-02-23T02:25:58;96073.72;;;3.35;100.00
54936;BME280;40838;50.676;7.838;2024-02-23T02:28:25;96070.63;;;3.48;100.00
54936;BME280;40838;50.676;7.838;2024-02-23T02:30:52;96075.81;;;3.22;100.00
54936;BME280;40838;50.676;7.838;2024-02-23T02:33:19;96082.88;;;3.37;100.00
54936;BME280;40838;50.676;7.838;2024-02-23T02:35:46;96076.63;;;3.38;100.00
54936;BME280;40838;50.676;7.838;2024-02-23T02:38:14;96088.91;;;3.28;100.00
54936;BME280;40838;50.676;7.838;2024-02-23T02:40:43;96098.09;;;3.45;100.00
54936;BME280;40838;50.676;7.838;2024-02-23T02:43:09;96103.00;;;3.32;100.00
54936;BME280;40838;50.676;7.838;2024-02-23T02:45:37;96113.72;;;3.15;100.00
54936;BME280;40838;50.676;7.838;2024-02-23T02:48:04;96107.44;;;3.16;100.00
54936;BME280;40838;50.676;7.838;2024-02-23T02:50:31;96109.84;;;3.33;100.00
54936;BME280;40838;50.676;7.838;2024-02-23T02:52:58;96104.56;;;3.22;100.00
54936;BME280;40838;50.676;7.838;2024-02-23T02:55:24;96106.66;;;3.15;100.00
54936;BME280;40838;50.676;7.838;2024-02-23T02:57:53;96103.41;;;2.88;100.00
54936;BME280;40838;50.676;7.838;2024-02-23T03:00:20;96090.41;;;3.08;100.00
54936;BME280;40838;50.676;7.838;2024-02-23T03:02:46;96089.13;;;3.26;100.00
54936;BME280;40838;50.676;7.838;2024-02-23T03:05:13;96094.38;;;3.26;100.00
54936;BME280;40838;50.676;7.838;2024-02-23T03:07:40;96099.81;;;3.04;100.00
54936;BME280;40838;50.676;7.838;2024-02-23T03:10:07;96096.47;;;3.24;100.00
54936;BME280;40838;50.676;7.838;2024-02-23T03:12:34;96104.53;;;3.12;100.00
54936;BME280;40838;50.676;7.838;2024-02-23T03:15:04;96102.41;;;2.99;100.00
54936;BME280;40838;50.676;7.838;2024-02-23T03:17:31;96101.97;;;3.28;100.00
54936;BME280;40838;50.676;7.838;2024-02-23T03:19:58;96113.91;;;2.98;100.00
54936;BME280;40838;50.676;7.838;2024-02-23T03:22:25;96108.19;;;3.06;100.00
54936;BME280;40838;50.676;7.838;2024-02-23T03:24:52;96109.19;;;3.00;100.00
54936;BME280;40838;50.676;7.838;2024-02-23T03:27:19;96117.31;;;3.04;100.00
54936;BME280;40838;50.676;7.838;2024-02-23T03:29:46;96116.56;;;3.13;100.00
54936;BME280;40838;50.676;7.838;2024-02-23T03:32:15;96118.91;;;3.10;100.00
54936;BME280;40838;50.676;7.838;2024-02-23T03:34:43;96120.38;;;2.85;100.00
54936;BME280;40838;50.676;7.838;2024-02-23T03:37:10;96123.84;;;3.01;100.00
54936;BME280;40838;50.676;7.838;2024-02-23T03:39:37;96115.00;;;3.12;100.00
54936;BME280;40838;50.676;7.838;2024-02-23T03:42:05;96109.31;;;3.46;100.00
54936;BME280;40838;50.676;7.838;2024-02-23T03:44:32;96125.53;;;3.33;100.00
54936;BME280;40838;50.676;7.838;2024-02-23T03:46:59;96114.50;;;3.15;100.00
54936;BME280;40838;50.676;7.838;2024-02-23T03:49:27;96112.72;;;3.46;100.00
54936;BME280;40838;50.676;7.838;2024-02-23T03:51:54;96112.47;;;3.43;100.00
54936;BME280;40838;50.676;7.838;2024-02-23T03:54:21;96111.91;;;3.31;100.00
54936;BME280;40838;50.676;7.838;2024-02-23T03:56:48;96113.50;;;3.37;100.00
54936;BME280;40838;50.676;7.838;2024-02-23T03:59:15;96122.63;;;3.24;100.00
54936;BME280;40838;50.676;7.838;2024-02-23T04:01:42;96123.63;;;3.13;100.00
54936;BME280;40838;50.676;7.838;2024-02-23T04:04:10;96120.28;;;3.28;100.00
54936;BME280;40838;50.676;7.838;2024-02-23T04:06:38;96123.94;;;3.32;100.00
54936;BME280;40838;50.676;7.838;2024-02-23T04:09:05;96130.97;;;3.21;100.00
54936;BME280;40838;50.676;7.838;2024-02-23T04:11:33;96129.16;;;3.27;100.00
54936;BME280;40838;50.676;7.838;2024-02-23T04:14:00;96130.53;;;3.44;100.00
54936;BME280;40838;50.676;7.838;2024-02-23T04:16:27;96127.03;;;3.13;100.00
54936;BME280;40838;50.676;7.838;2024-02-23T04:18:54;96123.03;;;2.95;100.00
54936;BME280;40838;50.676;7.838;2024-02-23T04:21:21;96123.59;;;3.08;100.00
54936;BME280;40838;50.676;7.838;2024-02-23T04:23:50;96130.22;;;3.31;100.00
54936;BME280;40838;50.676;7.838;2024-02-23T04:26:17;96125.00;;;3.41;100.00
54936;BME280;40838;50.676;7.838;2024-02-23T04:28:44;96135.16;;;3.32;100.00
54936;BME280;40838;50.676;7.838;2024-02-23T04:31:11;96138.31;;;3.29;100.00
54936;BME280;40838;50.676;7.838;2024-02-23T04:33:38;96125.81;;;3.46;100.00
54936;BME280;40838;50.676;7.838;2024-02-23T04:36:06;96134.94;;;3.34;100.00
54936;BME280;40838;50.676;7.838;2024-02-23T04:38:33;96130.72;;;3.28;100.00
54936;BME280;40838;50.676;7.838;2024-02-23T04:41:04;96131.19;;;3.14;100.00
54936;BME280;40838;50.676;7.838;2024-02-23T04:43:31;96131.94;;;2.94;100.00
54936;BME280;40838;50.676;7.838;2024-02-23T04:45:58;96142.66;;;2.98;100.00
54936;BME280;40838;50.676;7.838;2024-02-23T04:48:25;96131.66;;;2.96;100.00
54936;BME280;40838;50.676;7.838;2024-02-23T04:50:52;96140.19;;;2.76;100.00
54936;BME280;40838;50.676;7.838;2024-02-23T04:53:19;96141.59;;;2.99;100.00
54936;BME280;40838;50.676;7.838;2024-02-23T04:55:46;96136.94;;;3.06;100.00
54936;BME280;40838;50.676;7.838;2024-02-23T04:58:14;96142.63;;;2.93;100.00
54936;BME280;40838;50.676;7.838;2024-02-23T05:00:42;96133.41;;;2.75;100.00
54936;BME280;40838;50.676;7.838;2024-02-23T05:03:09;96139.94;;;2.77;100.00
54936;BME280;40838;50.676;7.838;2024-02-23T05:05:36;96141.72;;;2.67;100.00
54936;BME280;40838;50.676;7.838;2024-02-23T05:08:03;96155.56;;;2.67;100.00
54936;BME280;40838;50.676;7.838;2024-02-23T05:10:30;96161.56;;;2.68;100.00
54936;BME280;40838;50.676;7.838;2024-02-23T05:12:57;96159.34;;;2.97;100.00
54936;BME280;40838;50.676;7.838;2024-02-23T05:15:25;96157.78;;;2.96;100.00
54936;BME280;40838;50.676;7.838;2024-02-23T05:17:52;96164.44;;;2.66;100.00
54936;BME280;40838;50.676;7.838;2024-02-23T05:20:19;96167.00;;;2.61;100.00
54936;BME280;40838;50.676;7.838;2024-02-23T05:22:47;96163.56;;;2.50;100.00
54936;BME280;40838;50.676;7.838;2024-02-23T05:25:14;96158.34;;;2.55;100.00
54936;BME280;40838;50.676;7.838;2024-02-23T05:27:41;96163.97;;;2.74;100.00
54936;BME280;40838;50.676;7.838;2024-02-23T05:30:08;96160.72;;;2.57;100.00
54936;BME280;40838;50.676;7.838;2024-02-23T05:32:37;96154.50;;;2.63;100.00
54936;BME280;40838;50.676;7.838;2024-02-23T05:35:05;96153.88;;;2.46;100.00
54936;BME280;40838;50.676;7.838;2024-02-23T05:37:31;96165.53;;;2.75;100.00
54936;BME280;40838;50.676;7.838;2024-02-23T05:39:58;96157.25;;;2.46;100.00
54936;BME280;40838;50.676;7.838;2024-02-23T05:42:25;96157.06;;;2.21;100.00
54936;BME280;40838;50.676;7.838;2024-02-23T05:44:52;96164.28;;;2.41;100.00
54936;BME280;40838;50.676;7.838;2024-02-23T05:47:19;96165.34;;;2.45;100.00
54936;BME280;40838;50.676;7.838;2024-02-23T05:49:48;96168.09;;;2.65;100.00
54936;BME280;40838;50.676;7.838;2024-02-23T05:52:14;96167.06;;;2.66;100.00
54936;BME280;40838;50.676;7.838;2024-02-23T05:54:41;96165.28;;;2.82;100.00
54936;BME280;40838;50.676;7.838;2024-02-23T05:57:08;96167.41;;;2.80;100.00
54936;BME280;40838;50.676;7.838;2024-02-23T05:59:35;96155.72;;;2.98;100.00
54936;BME280;40838;50.676;7.838;2024-02-23T06:02:02;96144.94;;;2.84;100.00
54936;BME280;40838;50.676;7.838;2024-02-23T06:04:29;96143.75;;;3.12;100.00
54936;BME280;40838;50.676;7.838;2024-02-23T06:06:57;96141.81;;;2.87;100.00
54936;BME280;40838;50.676;7.838;2024-02-23T06:09:24;96131.63;;;2.86;100.00
54936;BME280;40838;50.676;7.838;2024-02-23T06:11:51;96139.78;;;2.94;100.00
54936;BME280;40838;50.676;7.838;2024-02-23T06:14:18;96137.53;;;2.66;100.00
54936;BME280;40838;50.676;7.838;2024-02-23T06:16:45;96135.13;;;3.07;100.00
54936;BME280;40838;50.676;7.838;2024-02-23T06:19:12;96136.41;;;3.04;100.00
54936;BME280;40838;50.676;7.838;2024-02-23T06:21:39;96134.88;;;3.13;100.00
54936;BME280;40838;50.676;7.838;2024-02-23T06:24:07;96132.47;;;3.02;100.00
54936;BME280;40838;50.676;7.838;2024-02-23T06:26:34;96129.31;;;2.99;100.00
54936;BME280;40838;50.676;7.838;2024-02-23T06:29:01;96127.50;;;3.05;100.00
54936;BME280;40838;50.676;7.838;2024-02-23T06:31:29;96123.81;;;2.96;100.00
54936;BME280;40838;50.676;7.838;2024-02-23T06:33:56;96124.69;;;3.22;100.00
54936;BME280;40838;50.676;7.838;2024-02-23T06:36:23;96124.94;;;3.10;100.00
54936;BME280;40838;50.676;7.838;2024-02-23T06:38:49;96129.34;;;3.05;100.00
54936;BME280;40838;50.676;7.838;2024-02-23T06:41:18;96136.75;;;3.33;100.00
54936;BME280;40838;50.676;7.838;2024-02-23T06:43:45;96144.38;;;2.77;100.00
54936;BME280;40838;50.676;7.838;2024-02-23T06:46:12;96147.50;;;2.79;100.00
54936;BME280;40838;50.676;7.838;2024-02-23T06:48:38;96142.41;;;3.05;100.00
54936;BME280;40838;50.676;7.838;2024-02-23T06:51:06;96154.53;;;2.73;100.00
54936;BME280;40838;50.676;7.838;2024-02-23T06:53:35;96154.72;;;3.14;100.00
54936;BME280;40838;50.676;7.838;2024-02-23T06:56:02;96155.75;;;3.03;100.00
54936;BME280;40838;50.676;7.838;2024-02-23T06:58:30;96151.94;;;2.73;100.00
54936;BME280;40838;50.676;7.838;2024-02-23T07:00:57;96146.56;;;2.95;100.00
54936;BME280;40838;50.676;7.838;2024-02-23T07:03:24;96152.91;;;3.10;100.00
54936;BME280;40838;50.676;7.838;2024-02-23T07:05:51;96160.84;;;3.35;100.00
54936;BME280;40838;50.676;7.838;2024-02-23T07:08:18;96170.63;;;3.86;100.00
54936;BME280;40838;50.676;7.838;2024-02-23T07:10:45;96169.72;;;3.34;100.00
54936;BME280;40838;50.676;7.838;2024-02-23T07:13:12;96174.25;;;3.75;100.00
54936;BME280;40838;50.676;7.838;2024-02-23T07:15:40;96171.28;;;3.30;100.00
54936;BME280;40838;50.676;7.838;2024-02-23T07:18:07;96185.22;;;3.56;100.00
54936;BME280;40838;50.676;7.838;2024-02-23T07:20:35;96194.75;;;4.19;100.00
54936;BME280;40838;50.676;7.838;2024-02-23T07:23:02;96194.91;;;3.61;100.00
54936;BME280;40838;50.676;7.838;2024-02-23T07:25:29;96190.25;;;3.88;100.00
54936;BME280;40838;50.676;7.838;2024-02-23T07:27:56;96207.22;;;3.65;100.00
54936;BME280;40838;50.676;7.838;2024-02-23T07:30:23;96211.13;;;3.63;100.00
54936;BME280;40838;50.676;7.838;2024-02-23T07:32:52;96216.69;;;3.87;100.00
54936;BME280;40838;50.676;7.838;2024-02-23T07:35:19;96204.97;;;4.46;100.00
54936;BME280;40838;50.676;7.838;2024-02-23T07:37:46;96188.69;;;3.82;100.00
54936;BME280;40838;50.676;7.838;2024-02-23T07:40:13;96193.69;;;4.76;100.00
54936;BME280;40838;50.676;7.838;2024-02-23T07:42:39;96192.34;;;5.59;100.00
54936;BME280;40838;50.676;7.838;2024-02-23T07:45:07;96181.66;;;6.63;100.00
54936;BME280;40838;50.676;7.838;2024-02-23T07:47:34;96187.84;;;7.87;100.00
54936;BME280;40838;50.676;7.838;2024-02-23T07:50:03;96187.38;;;6.02;100.00
54936;BME280;40838;50.676;7.838;2024-02-23T07:52:29;96192.31;;;6.77;100.00
54936;BME280;40838;50.676;7.838;2024-02-23T07:54:56;96193.63;;;7.27;100.00
54936;BME280;40838;50.676;7.838;2024-02-23T07:57:25;96204.72;;;5.48;100.00
54936;BME280;40838;50.676;7.838;2024-02-23T07:59:52;96217.06;;;5.53;100.00
54936;BME280;40838;50.676;7.838;2024-02-23T08:02:19;96211.22;;;4.75;100.00
54936;BME280;40838;50.676;7.838;2024-02-23T08:04:46;96208.34;;;4.67;100.00
54936;BME280;40838;50.676;7.838;2024-02-23T08:07:15;96224.00;;;5.13;100.00
54936;BME280;40838;50.676;7.838;2024-02-23T08:09:42;96223.59;;;4.29;100.00
54936;BME280;40838;50.676;7.838;2024-02-23T08:12:09;96221.47;;;4.46;100.00
54936;BME280;40838;50.676;7.838;2024-02-23T08:14:36;96235.38;;;4.42;100.00
54936;BME280;40838;50.676;7.838;2024-02-23T08:17:04;96236.69;;;4.65;100.00
54936;BME280;40838;50.676;7.838;2024-02-23T08:19:30;96238.25;;;4.40;100.00
54936;BME280;40838;50.676;7.838;2024-02-23T08:21:57;96223.28;;;4.05;100.00
54936;BME280;40838;50.676;7.838;2024-02-23T08:24:25;96224.06;;;4.05;100.00
54936;BME280;40838;50.676;7.838;2024-02-23T08:26:53;96229.34;;;4.41;100.00
54936;BME280;40838;50.676;7.838;2024-02-23T08:29:20;96221.22;;;4.27;100.00
54936;BME280;40838;50.676;7.838;2024-02-23T08:31:47;96239.78;;;4.26;100.00
54936;BME280;40838;50.676;7.838;2024-02-23T08:34:15;96240.88;;;4.30;100.00
54936;BME280;40838;50.676;7.838;2024-02-23T08:36:43;96240.31;;;4.64;100.00
54936;BME280;40838;50.676;7.838;2024-02-23T08:39:10;96247.16;;;5.65;100.00
54936;BME280;40838;50.676;7.838;2024-02-23T08:41:39;96255.25;;;4.84;100.00
54936;BME280;40838;50.676;7.838;2024-02-23T08:44:06;96248.97;;;4.49;100.00
54936;BME280;40838;50.676;7.838;2024-02-23T08:46:34;96254.72;;;4.87;100.00
54936;BME280;40838;50.676;7.838;2024-02-23T08:49:05;96250.94;;;5.39;100.00
54936;BME280;40838;50.676;7.838;2024-02-23T08:51:32;96254.72;;;4.87;100.00
54936;BME280;40838;50.676;7.838;2024-02-23T08:53:59;96258.53;;;5.45;100.00
54936;BME280;40838;50.676;7.838;2024-02-23T08:56:30;96251.81;;;5.09;100.00
54936;BME280;40838;50.676;7.838;2024-02-23T08:58:58;96255.28;;;4.63;100.00
54936;BME280;40838;50.676;7.838;2024-02-23T09:01:26;96244.00;;;4.83;100.00
54936;BME280;40838;50.676;7.838;2024-02-23T09:03:54;96248.72;;;4.76;100.00
54936;BME280;40838;50.676;7.838;2024-02-23T09:06:22;96250.81;;;4.53;100.00
54936;BME280;40838;50.676;7.838;2024-02-23T09:08:49;96249.78;;;4.54;100.00
54936;BME280;40838;50.676;7.838;2024-02-23T09:11:17;96258.09;;;5.13;100.00
54936;BME280;40838;50.676;7.838;2024-02-23T09:13:44;96254.50;;;4.68;100.00
54936;BME280;40838;50.676;7.838;2024-02-23T09:16:13;96250.19;;;5.28;100.00
54936;BME280;40838;50.676;7.838;2024-02-23T09:18:41;96257.59;;;5.00;100.00
54936;BME280;40838;50.676;7.838;2024-02-23T09:21:09;96253.63;;;5.18;100.00
54936;BME280;40838;50.676;7.838;2024-02-23T09:23:36;96260.00;;;6.22;100.00
54936;BME280;40838;50.676;7.838;2024-02-23T09:26:09;96242.53;;;5.47;100.00
54936;BME280;40838;50.676;7.838;2024-02-23T09:28:36;96249.06;;;5.49;100.00
54936;BME280;40838;50.676;7.838;2024-02-23T09:31:03;96262.22;;;5.44;100.00
54936;BME280;40838;50.676;7.838;2024-02-23T09:33:31;96259.19;;;4.61;100.00
54936;BME280;40838;50.676;7.838;2024-02-23T09:35:58;96252.34;;;6.65;100.00
54936;BME280;40838;50.676;7.838;2024-02-23T09:38:28;96262.47;;;6.08;100.00
54936;BME280;40838;50.676;7.838;2024-02-23T09:41:00;96251.88;;;4.42;100.00
54936;BME280;40838;50.676;7.838;2024-02-23T09:43:29;96262.75;;;5.31;100.00
54936;BME280;40838;50.676;7.838;2024-02-23T09:45:57;96266.22;;;5.16;100.00
54936;BME280;40838;50.676;7.838;2024-02-23T09:48:25;96270.72;;;4.95;100.00
54936;BME280;40838;50.676;7.838;2024-02-23T09:50:57;96270.75;;;4.59;100.00
54936;BME280;40838;50.676;7.838;2024-02-23T09:53:24;96266.53;;;4.38;100.00
54936;BME280;40838;50.676;7.838;2024-02-23T09:55:53;96268.66;;;4.62;100.00
54936;BME280;40838;50.676;7.838;2024-02-23T09:58:21;96264.19;;;4.77;100.00
54936;BME280;40838;50.676;7.838;2024-02-23T10:00:50;96273.63;;;4.94;100.00
54936;BME280;40838;50.676;7.838;2024-02-23T10:03:17;96263.94;;;4.79;100.00
54936;BME280;40838;50.676;7.838;2024-02-23T10:05:44;96269.41;;;4.72;100.00
54936;BME280;40838;50.676;7.838;2024-02-23T10:08:13;96273.34;;;4.75;100.00
54936;BME280;40838;50.676;7.838;2024-02-23T10:10:41;96272.56;;;4.90;100.00
54936;BME280;40838;50.676;7.838;2024-02-23T10:13:08;96265.47;;;5.00;100.00
54936;BME280;40838;50.676;7.838;2024-02-23T10:15:35;96267.78;;;5.22;100.00
54936;BME280;40838;50.676;7.838;2024-02-23T10:18:03;96268.13;;;4.85;100.00
54936;BME280;40838;50.676;7.838;2024-02-23T10:20:29;96267.59;;;4.88;100.00
54936;BME280;40838;50.676;7.838;2024-02-23T10:22:56;96266.81;;;4.57;100.00
54936;BME280;40838;50.676;7.838;2024-02-23T10:25:25;96267.56;;;5.03;100.00
54936;BME280;40838;50.676;7.838;2024-02-23T10:27:52;96264.69;;;5.00;100.00
54936;BME280;40838;50.676;7.838;2024-02-23T10:30:18;96262.84;;;4.34;100.00
54936;BME280;40838;50.676;7.838;2024-02-23T10:32:45;96265.50;;;4.75;100.00
54936;BME280;40838;50.676;7.838;2024-02-23T10:35:14;96282.78;;;4.71;100.00
54936;BME280;40838;50.676;7.838;2024-02-23T10:37:42;96276.84;;;6.15;100.00
54936;BME280;40838;50.676;7.838;2024-02-23T10:40:12;96282.44;;;5.34;100.00
54936;BME280;40838;50.676;7.838;2024-02-23T10:42:43;96292.75;;;4.89;100.00
54936;BME280;40838;50.676;7.838;2024-02-23T10:45:14;96279.78;;;5.44;100.00
54936;BME280;40838;50.676;7.838;2024-02-23T10:47:45;96277.88;;;5.65;100.00
54936;BME280;40838;50.676;7.838;2024-02-23T10:50:13;96267.84;;;6.27;100.00
54936;BME280;40838;50.676;7.838;2024-02-23T10:52:41;96274.72;;;5.63;100.00
54936;BME280;40838;50.676;7.838;2024-02-23T10:55:09;96268.03;;;5.96;100.00
54936;BME280;40838;50.676;7.838;2024-02-23T10:57:36;96275.28;;;5.60;100.00
54936;BME280;40838;50.676;7.838;2024-02-23T11:00:07;96271.94;;;5.44;100.00
54936;BME280;40838;50.676;7.838;2024-02-23T11:02:40;96268.81;;;5.97;100.00
54936;BME280;40838;50.676;7.838;2024-02-23T11:05:08;96259.78;;;6.13;100.00
54936;BME280;40838;50.676;7.838;2024-02-23T11:07:38;96272.81;;;5.09;100.00
54936;BME280;40838;50.676;7.838;2024-02-23T11:10:06;96274.78;;;5.47;100.00
54936;BME280;40838;50.676;7.838;2024-02-23T11:12:35;96274.06;;;5.16;100.00
54936;BME280;40838;50.676;7.838;2024-02-23T11:15:02;96268.47;;;5.54;100.00
54936;BME280;40838;50.676;7.838;2024-02-23T11:17:31;96270.06;;;6.04;100.00
54936;BME280;40838;50.676;7.838;2024-02-23T11:20:01;96261.59;;;6.17;100.00
54936;BME280;40838;50.676;7.838;2024-02-23T11:22:30;96250.94;;;6.77;100.00
54936;BME280;40838;50.676;7.838;2024-02-23T11:25:00;96250.41;;;9.87;100.00
54936;BME280;40838;50.676;7.838;2024-02-23T11:27:30;96232.84;;;7.72;100.00
54936;BME280;40838;50.676;7.838;2024-02-23T11:30:02;96263.69;;;7.90;100.00
54936;BME280;40838;50.676;7.838;2024-02-23T11:32:37;96261.28;;;8.32;100.00
54936;BME280;40838;50.676;7.838;2024-02-23T11:35:06;96264.94;;;7.02;100.00
54936;BME280;40838;50.676;7.838;2024-02-23T11:37:44;96269.13;;;6.39;100.00
54936;BME280;40838;50.676;7.838;2024-02-23T11:40:12;96265.69;;;8.17;100.00
54936;BME280;40838;50.676;7.838;2024-02-23T11:42:41;96259.66;;;7.02;100.00
54936;BME280;40838;50.676;7.838;2024-02-23T11:45:09;96251.94;;;7.11;100.00
54936;BME280;40838;50.676;7.838;2024-02-23T11:47:37;96252.97;;;7.39;100.00
54936;BME280;40838;50.676;7.838;2024-02-23T11:50:07;96252.94;;;8.25;100.00
54936;BME280;40838;50.676;7.838;2024-02-23T11:52:34;96241.03;;;7.46;100.00
54936;BME280;40838;50.676;7.838;2024-02-23T11:55:01;96223.94;;;6.96;100.00
54936;BME280;40838;50.676;7.838;2024-02-23T11:57:31;96245.44;;;6.74;100.00
54936;BME280;40838;50.676;7.838;2024-02-23T11:59:58;96199.50;;;6.32;100.00
54936;BME280;40838;50.676;7.838;2024-02-23T12:02:24;96228.13;;;6.33;100.00
54936;BME280;40838;50.676;7.838;2024-02-23T12:04:53;96231.19;;;7.57;100.00
54936;BME280;40838;50.676;7.838;2024-02-23T12:07:20;96230.97;;;6.76;100.00
54936;BME280;40838;50.676;7.838;2024-02-23T12:09:47;96239.13;;;7.52;100.00
54936;BME280;40838;50.676;7.838;2024-02-23T12:12:14;96238.81;;;7.77;100.00
54936;BME280;40838;50.676;7.838;2024-02-23T12:14:42;96239.91;;;7.04;100.00
54936;BME280;40838;50.676;7.838;2024-02-23T12:17:09;96238.81;;;7.35;100.00
54936;BME280;40838;50.676;7.838;2024-02-23T12:19:38;96234.31;;;7.11;100.00
54936;BME280;40838;50.676;7.838;2024-02-23T12:22:07;96225.25;;;7.46;100.00
54936;BME280;40838;50.676;7.838;2024-02-23T12:24:34;96242.56;;;6.75;100.00
54936;BME280;40838;50.676;7.838;2024-02-23T12:27:01;96238.06;;;7.53;100.00
54936;BME280;40838;50.676;7.838;2024-02-23T12:29:28;96259.09;;;7.05;100.00
54936;BME280;40838;50.676;7.838;2024-02-23T12:32:03;96257.00;;;7.31;100.00
54936;BME280;40838;50.676;7.838;2024-02-23T12:34:29;96276.25;;;6.68;100.00
54936;BME280;40838;50.676;7.838;2024-02-23T12:36:56;96293.75;;;5.29;100.00
54936;BME280;40838;50.676;7.838;2024-02-23T12:39:24;96295.31;;;5.25;100.00
54936;BME280;40838;50.676;7.838;2024-02-23T12:41:52;96290.53;;;5.53;100.00
54936;BME280;40838;50.676;7.838;2024-02-23T12:44:18;96282.03;;;5.76;100.00
54936;BME280;40838;50.676;7.838;2024-02-23T12:46:45;96272.22;;;5.32;100.00
54936;BME280;40838;50.676;7.838;2024-02-23T12:49:12;96277.97;;;5.39;100.00
54936;BME280;40838;50.676;7.838;2024-02-23T12:51:39;96275.72;;;5.77;100.00
54936;BME280;40838;50.676;7.838;2024-02-23T12:54:06;96272.84;;;5.79;100.00
54936;BME280;40838;50.676;7.838;2024-02-23T12:56:35;96268.63;;;5.78;100.00
54936;BME280;40838;50.676;7.838;2024-02-23T12:59:02;96265.47;;;7.71;100.00
54936;BME280;40838;50.676;7.838;2024-02-23T13:01:29;96265.06;;;8.07;100.00